KIZA

Details ICAO KIZA (SQA)
Name SANTA YNEZ
Region United States
Timezone America/Los_Angeles (UTC-7.0)
Plans Departing 21
Arriving 22
Stats Elevation 671 ft / 205 m (AMSL)
Location 34.606800° -120.076000°
Runways 1
Magnetic Variation 12.323° E
Sunrise 2019-05-25 12:52:54 UTC / 2019-05-25 05:52:54 Local
Sunset 2019-05-26 03:04:28 UTC / 2019-05-25 20:04:28 Local
Advertisement - Login to hide

Runways

ID Width Length Bearing (true/mag) Surface Threshold Overrun Markings Lighting
08 75 ft / 23 m 2,798 ft / 853 m 98.28° / 85.96° ASPHALT 0 ft / 0 m 0 ft / 0 m APP EDGE THRESHOLD
26 75 ft / 23 m 2,798 ft / 853 m 278.29° / 265.96° ASPHALT 0 ft / 0 m 0 ft / 0 m APP EDGE THRESHOLD

Map

Weather


0- 5 10 15 20 25 30 35+ Temperature / °C

Clouds and Precipitation
Forecast for 2019-05-25 18:00 UTC. Updated 4 hours ago

Ground ~20,000 ft ~40,000 ft Winds

METAR

KIZA 251935Z AUTO 25009KT 10SM OVC015 17/11 A2992 RMK AO2

TAF

Not found

Frequencies

Recorded 118.07 MHz AWOS 3
Approach 124.15 MHz SANTA BARB APP/DEP
Unicom 122.80 MHz CTAF/UNICOM
Warning: Do not use this data for real-world aviation or navigation. No guarantee of current accuracy is given.